Bruce, Florida
Current Conditions -  °F | °C
As of 3:55 PM on Thursday 27 Nov 2014 (Local Time) from K54J Reporting Station
Clear Clear  
Wind Chill: 54°   Ceiling: Unl
Heat Index: 54°   Visibility: 10mi
Dew Point: 29°   Wind: 14mph
Humidity: 39%   Direction: 330°NNW
Pressure: 30.33"   Gusts: NA
Location:  30.678°N, 85.9545°W
Report Text: K54J 272155Z AUTO 33012KT 10SM CLR 12/M01 A3033 RMK AO2 T01211014
Loading
Personal Weather Stations






























Interactive Weather Map New forecast layout! Learn more

10-Day Weather Forecast

Advertisements
Track Severe Weather on mobile